Time;durP1;ratioP1;P1;durP2;ratioP2;P2;SDS_P1;SDS_P2;PMS_P1;PMS_P2;Temp;Humidity;BMP_temperature;BMP_pressure;BME280_temperature;BME280_humidity;BME280_pressure;Samples;Min_cycle;Max_cycle;Signal;HPM_P1;HPM_P2
2023/01/16 00:01:33;;;;;;;7.03;3.85;;;;;;;5.97;100.00;97298.31;4999876;28;20401;-77
2023/01/16 00:03:58;;;;;;;8.38;3.67;;;;;;;5.88;100.00;97294.31;5016075;28;20033;-77
2023/01/16 00:06:24;;;;;;;6.47;2.97;;;;;;;5.84;100.00;97294.50;5015756;28;20030;-78
2023/01/16 00:08:50;;;;;;;10.55;4.50;;;;;;;5.95;100.00;97302.84;4999317;28;20029;-78
2023/01/16 00:11:16;;;;;;;12.95;4.15;;;;;;;5.88;100.00;97283.69;5015845;28;20025;-77
2023/01/16 00:13:42;;;;;;;8.32;4.72;;;;;;;5.98;100.00;97300.03;5033088;28;20034;-78
2023/01/16 00:16:08;;;;;;;5.10;2.90;;;;;;;5.96;100.00;97297.47;5015580;28;20040;-76
2023/01/16 00:18:34;;;;;;;7.05;3.90;;;;;;;6.02;100.00;97295.44;4999104;28;20092;-76
2023/01/16 00:21:00;;;;;;;7.10;3.63;;;;;;;6.00;100.00;97304.34;4999172;28;20038;-76
2023/01/16 00:23:26;;;;;;;6.65;3.03;;;;;;;5.93;100.00;97288.78;5015654;28;20100;-76
2023/01/16 00:25:52;;;;;;;8.50;3.40;;;;;;;6.01;100.00;97297.25;5015300;28;20488;-77
2023/01/16 00:28:17;;;;;;;10.93;4.78;;;;;;;5.97;100.00;97277.94;5015645;28;20029;-77
2023/01/16 00:30:43;;;;;;;7.32;3.78;;;;;;;6.10;100.00;97295.94;5015437;28;20108;-78
2023/01/16 00:33:09;;;;;;;8.30;4.35;;;;;;;5.98;100.00;97294.72;4999009;28;20428;-75
2023/01/16 00:35:35;;;;;;;15.32;4.25;;;;;;;6.03;100.00;97276.78;4998912;28;20029;-77
2023/01/16 00:38:01;;;;;;;6.22;3.45;;;;;;;6.10;100.00;97283.53;5015225;28;20056;-76
2023/01/16 00:40:27;;;;;;;5.93;3.30;;;;;;;6.12;100.00;97291.44;5015361;28;20025;-76
2023/01/16 00:42:53;;;;;;;6.93;3.75;;;;;;;6.01;100.00;97257.41;4998559;28;20026;-78
2023/01/16 00:45:19;;;;;;;6.90;3.97;;;;;;;6.13;100.00;97266.56;5014743;28;20107;-77
2023/01/16 00:47:44;;;;;;;6.80;3.90;;;;;;;6.12;100.00;97275.50;4998695;28;20462;-78
2023/01/16 00:51:13;;;;;;;6.60;3.55;;;;;;;6.10;100.00;97242.84;5011791;28;20043;-77
2023/01/16 00:54:03;;;;;;;9.07;4.30;;;;;;;6.09;100.00;97252.59;5023278;28;20045;-78
2023/01/16 01:00:25;;;;;;;;;;;;;;;;;;;;;
2023/01/16 01:07:02;;;;;;;8.07;3.20;;;;;;;5.79;100.00;97166.47;4944983;29;20089;-77
2023/01/16 01:12:48;;;;;;;4.85;2.63;;;;;;;6.15;100.00;97219.59;4927063;29;20106;-77
2023/01/16 01:15:25;;;;;;;6.30;3.08;;;;;;;5.88;100.00;97209.38;4941066;28;20078;-79
2023/01/16 01:18:06;;;;;;;5.63;3.22;;;;;;;6.08;100.00;97226.13;4971588;28;20039;-79
2023/01/16 01:20:37;;;;;;;6.88;3.63;;;;;;;5.77;100.00;97158.59;4956112;28;20542;-77
2023/01/16 01:23:47;;;;;;;4.68;2.83;;;;;;;6.39;100.00;97226.31;4963391;28;20553;-79
2023/01/16 01:26:15;;;;;;;3.85;2.30;;;;;;;6.10;100.00;97187.09;5014282;28;20544;-77
2023/01/16 01:28:41;;;;;;;5.63;3.13;;;;;;;6.11;100.00;97196.78;5014247;28;20025;-78
2023/01/16 01:31:09;;;;;;;5.47;3.20;;;;;;;6.25;100.00;97226.13;5012662;28;20026;-77
2023/01/16 01:33:35;;;;;;;6.03;2.83;;;;;;;6.25;100.00;97199.59;5011018;28;20519;-77
2023/01/16 01:36:01;;;;;;;9.32;4.00;;;;;;;6.31;100.00;97201.94;4997674;28;20021;-78
2023/01/16 01:38:27;;;;;;;2.35;2.00;;;;;;;6.21;100.00;97196.25;4993331;28;20091;-77
2023/01/16 01:40:52;;;;;;;5.10;3.15;;;;;;;6.33;100.00;97211.56;5013388;28;20041;-77
2023/01/16 01:43:18;;;;;;;6.80;3.75;;;;;;;6.31;100.00;97186.00;5013828;28;20036;-77
2023/01/16 01:45:48;;;;;;;6.88;3.03;;;;;;;6.24;100.00;97184.63;5014194;28;20063;-77
2023/01/16 01:48:14;;;;;;;7.85;4.53;;;;;;;6.25;100.00;97195.13;4997509;28;20120;-76
2023/01/16 01:50:39;;;;;;;8.30;4.10;;;;;;;6.24;100.00;97195.22;5013735;28;20160;-78
2023/01/16 01:53:11;;;;;;;7.15;3.88;;;;;;;6.11;100.00;97180.84;5011600;28;20465;-76
2023/01/16 01:55:41;;;;;;;9.07;4.88;;;;;;;6.11;100.00;97167.56;4997304;28;20416;-77
2023/01/16 01:58:10;;;;;;;3.83;2.35;;;;;;;6.16;100.00;97170.84;5005835;28;20044;-77
2023/01/16 02:00:35;;;;;;;7.82;4.32;;;;;;;6.17;100.00;97159.28;4998004;28;20488;-77
2023/01/16 02:03:12;;;;;;;5.65;2.25;;;;;;;6.18;100.00;97163.69;5013662;28;20037;-77
2023/01/16 02:05:44;;;;;;;4.03;2.78;;;;;;;6.16;100.00;97149.59;4997485;28;20497;-77
2023/01/16 02:08:13;;;;;;;4.78;3.10;;;;;;;6.19;100.00;97155.63;4997546;28;20036;-78
2023/01/16 02:10:51;;;;;;;7.05;3.45;;;;;;;6.23;100.00;97140.41;5010389;28;20087;-76
2023/01/16 02:13:17;;;;;;;3.70;2.22;;;;;;;6.23;100.00;97151.00;5011010;28;20029;-76
2023/01/16 02:19:15;;;;;;;5.72;3.53;;;;;;;6.25;100.00;97154.44;4997149;28;20567;-76
2023/01/16 02:21:29;;;;;;;9.27;4.22;;;;;;;6.25;100.00;97154.44;5014100;28;20075;-76
2023/01/16 02:24:23;;;;;;;3.95;2.45;;;;;;;6.19;100.00;97150.31;4997088;28;20033;-76
2023/01/16 02:27:04;;;;;;;9.07;5.00;;;;;;;6.17;100.00;97140.72;5010190;28;20096;-77
2023/01/16 02:30:09;;;;;;;9.23;4.85;;;;;;;6.13;100.00;97155.94;4996927;28;20036;-78
2023/01/16 02:32:58;;;;;;;6.47;3.90;;;;;;;6.12;100.00;97145.41;5013706;28;20132;-76
2023/01/16 02:35:58;;;;;;;8.40;4.18;;;;;;;6.16;100.00;97129.22;5012254;28;20029;-77
2023/01/16 02:38:35;;;;;;;7.38;4.35;;;;;;;6.15;100.00;97147.91;5013167;28;20025;-76
2023/01/16 02:41:42;;;;;;;3.35;2.17;;;;;;;6.10;100.00;97131.34;5031192;28;20112;-77
2023/01/16 02:44:34;;;;;;;6.70;3.28;;;;;;;6.19;100.00;97133.50;4967463;28;20038;-78
2023/01/16 02:47:09;;;;;;;7.75;4.47;;;;;;;6.14;100.00;97135.56;4970213;28;20121;-78
2023/01/16 02:49:49;;;;;;;3.08;1.90;;;;;;;6.15;100.00;97121.34;5011084;28;20038;-78
2023/01/16 02:52:22;;;;;;;6.13;3.13;;;;;;;6.18;100.00;97129.16;5013393;28;20083;-78
2023/01/16 02:54:52;;;;;;;6.78;3.70;;;;;;;6.19;100.00;97123.75;5013382;28;20113;-78
2023/01/16 02:57:20;;;;;;;7.57;4.07;;;;;;;6.13;100.00;97115.25;5013412;28;20022;-77
2023/01/16 02:59:47;;;;;;;5.47;3.33;;;;;;;6.15;100.00;97126.66;4996739;28;20025;-77
2023/01/16 03:02:14;;;;;;;5.00;3.10;;;;;;;6.10;100.00;97102.13;4996948;28;20475;-77
2023/01/16 03:04:50;;;;;;;5.00;2.58;;;;;;;6.16;100.00;97094.72;4996818;28;20033;-77
2023/01/16 03:07:35;;;;;;;7.07;2.95;;;;;;;6.19;100.00;97118.44;5013744;28;20033;-78
2023/01/16 03:10:35;;;;;;;3.55;2.08;;;;;;;6.19;100.00;97118.44;5000669;28;20025;-77
2023/01/16 03:13:34;;;;;;;7.05;3.90;;;;;;;6.25;100.00;97093.38;5016622;28;20427;-78
2023/01/16 03:16:39;;;;;;;5.70;3.35;;;;;;;6.21;100.00;97094.50;5016946;28;20567;-77
2023/01/16 03:19:33;;;;;;;4.45;2.28;;;;;;;6.20;100.00;97087.44;5016260;28;20033;-78
2023/01/16 03:22:16;;;;;;;6.13;3.22;;;;;;;6.15;100.00;97078.88;4997281;28;20021;-78
2023/01/16 03:25:10;;;;;;;4.90;2.80;;;;;;;6.15;100.00;97077.09;5000104;28;20601;-78
2023/01/16 03:27:51;;;;;;;5.35;3.25;;;;;;;6.11;100.00;97066.69;5013878;28;20034;-78
2023/01/16 03:30:23;;;;;;;5.15;2.53;;;;;;;6.19;100.00;97060.03;5016387;28;20088;-78
2023/01/16 03:32:57;;;;;;;6.90;4.18;;;;;;;6.25;100.00;97065.03;5016375;28;20543;-78
2023/01/16 03:35:30;;;;;;;9.82;3.47;;;;;;;6.22;100.00;97038.63;5000202;28;20021;-78
2023/01/16 03:37:59;;;;;;;8.13;4.43;;;;;;;6.27;100.00;97064.97;5016527;28;20056;-78
2023/01/16 03:40:28;;;;;;;6.30;3.47;;;;;;;6.18;100.00;97058.34;4999964;28;20100;-77
2023/01/16 03:43:01;;;;;;;4.38;2.40;;;;;;;6.14;100.00;97046.16;5000087;28;20029;-78
2023/01/16 03:45:50;;;;;;;5.22;3.03;;;;;;;6.22;100.00;97053.69;5033992;28;20112;-77
2023/01/16 03:48:35;;;;;;;5.82;2.83;;;;;;;6.19;100.00;97041.44;4999717;28;20033;-78
2023/01/16 03:51:05;;;;;;;6.32;3.45;;;;;;;6.22;100.00;97043.06;5009073;28;20037;-77
2023/01/16 03:53:37;;;;;;;6.13;3.40;;;;;;;6.13;100.00;97040.91;4999809;28;20405;-77
2023/01/16 03:56:25;;;;;;;6.60;3.38;;;;;;;6.12;100.00;97039.22;4996256;28;20100;-77
2023/01/16 03:58:52;;;;;;;3.20;2.28;;;;;;;6.06;100.00;97037.72;5015703;28;20061;-76
2023/01/16 04:01:43;;;;;;;7.95;4.28;;;;;;;5.99;100.00;97013.31;5016065;28;20047;-76
2023/01/16 04:04:20;;;;;;;5.95;3.13;;;;;;;6.08;100.00;97022.59;5033516;28;20022;-77
2023/01/16 04:06:47;;;;;;;5.90;3.00;;;;;;;6.21;100.00;97038.72;4999219;28;20059;-77
2023/01/16 04:09:22;;;;;;;8.90;5.20;;;;;;;6.18;100.00;97030.91;5015915;28;20513;-77
2023/01/16 04:11:49;;;;;;;11.07;4.38;;;;;;;6.15;100.00;97016.03;4999200;28;20107;-78
2023/01/16 04:14:15;;;;;;;8.88;4.78;;;;;;;6.09;100.00;97002.22;4999257;28;20040;-78
2023/01/16 04:16:42;;;;;;;7.32;4.47;;;;;;;6.16;100.00;96996.47;4999158;28;20021;-78
2023/01/16 04:19:12;;;;;;;9.70;3.83;;;;;;;6.09;100.00;96983.63;4998299;28;20055;-76
2023/01/16 04:21:37;;;;;;;16.20;6.20;;;;;;;6.16;100.00;97012.41;5033422;28;20053;-77
2023/01/16 04:24:04;;;;;;;8.52;4.28;;;;;;;6.08;100.00;97005.78;5015286;28;20079;-76
2023/01/16 04:26:30;;;;;;;12.35;5.78;;;;;;;6.14;100.00;97021.41;4999032;28;20040;-77
2023/01/16 04:28:56;;;;;;;16.73;6.03;;;;;;;6.07;100.00;97004.06;4998937;28;20052;-77
2023/01/16 04:31:27;;;;;;;9.65;4.15;;;;;;;6.05;100.00;96993.53;4998816;28;20080;-77
2023/01/16 04:33:53;;;;;;;14.25;5.68;;;;;;;6.13;100.00;97006.41;4999079;28;20038;-77
2023/01/16 04:36:18;;;;;;;5.97;3.55;;;;;;;6.01;100.00;96960.13;4998738;28;20124;-84
2023/01/16 04:38:44;;;;;;;15.02;5.90;;;;;;;6.10;100.00;96982.66;5015207;28;20038;-78
2023/01/16 04:41:09;;;;;;;6.78;3.42;;;;;;;6.18;100.00;96994.63;4998746;28;20025;-77
2023/01/16 04:43:35;;;;;;;14.25;6.43;;;;;;;6.15;100.00;96984.16;5015088;28;20084;-77
2023/01/16 04:46:00;;;;;;;17.48;7.57;;;;;;;6.13;100.00;96982.50;4998531;28;20035;-77
2023/01/16 04:48:28;;;;;;;7.68;3.72;;;;;;;6.13;100.00;96977.19;4998568;28;20036;-81
2023/01/16 04:50:54;;;;;;;8.13;4.55;;;;;;;6.16;100.00;96979.69;4996396;28;20088;-76
2023/01/16 04:53:20;;;;;;;8.85;3.47;;;;;;;6.18;100.00;96991.97;5014836;28;20469;-76
2023/01/16 04:55:45;;;;;;;9.00;3.10;;;;;;;6.27;100.00;96977.31;4998922;28;20529;-77
2023/01/16 04:58:11;;;;;;;6.07;2.72;;;;;;;6.26;100.00;96981.78;5014833;28;20025;-78
2023/01/16 05:00:36;;;;;;;4.68;2.45;;;;;;;6.24;100.00;96990.75;4998554;28;20406;-78
2023/01/16 05:03:02;;;;;;;5.72;3.70;;;;;;;6.23;100.00;96981.06;4998567;28;20424;-77
2023/01/16 05:05:28;;;;;;;8.90;4.40;;;;;;;6.23;100.00;96978.41;5014775;28;20029;-77
2023/01/16 05:10:37;;;;;;;11.48;5.50;;;;;;;6.17;100.00;96984.06;5017232;28;20070;-77
2023/01/16 05:13:03;;;;;;;9.75;4.03;;;;;;;6.14;100.00;96982.44;5014358;28;20029;-77
2023/01/16 05:15:28;;;;;;;7.25;3.22;;;;;;;5.98;100.00;96961.16;4994847;28;20026;-77
2023/01/16 05:17:54;;;;;;;8.57;4.30;;;;;;;6.10;100.00;96969.38;5011551;28;20025;-77
2023/01/16 05:20:20;;;;;;;14.55;6.53;;;;;;;6.07;100.00;96969.56;4998036;28;20029;-77
2023/01/16 05:22:46;;;;;;;9.50;5.05;;;;;;;6.04;100.00;96943.19;4998076;28;20029;-78
2023/01/16 05:25:13;;;;;;;10.73;5.25;;;;;;;6.01;100.00;96952.16;5014107;28;20033;-78
2023/01/16 05:27:38;;;;;;;8.68;4.20;;;;;;;5.99;100.00;96968.19;5017096;28;20496;-79
2023/01/16 05:30:04;;;;;;;11.52;5.43;;;;;;;6.02;100.00;96974.25;5012617;28;20037;-78
2023/01/16 05:32:30;;;;;;;6.10;3.78;;;;;;;6.02;100.00;96964.50;5030407;28;20481;-79
2023/01/16 05:34:56;;;;;;;8.60;4.25;;;;;;;6.13;100.00;96955.94;4996385;28;20033;-79
2023/01/16 05:37:21;;;;;;;11.20;5.30;;;;;;;6.04;100.00;96928.09;4997347;28;20469;-79
2023/01/16 05:39:47;;;;;;;12.80;5.20;;;;;;;6.12;100.00;96940.97;5012976;28;20487;-78
2023/01/16 05:42:21;;;;;;;7.43;3.50;;;;;;;6.14;100.00;96917.84;5012444;28;20047;-79
2023/01/16 05:44:52;;;;;;;12.57;5.32;;;;;;;6.09;100.00;96919.91;5031650;28;20056;-76
2023/01/16 05:47:21;;;;;;;10.07;4.97;;;;;;;6.11;100.00;96907.41;4997547;28;20492;-76
2023/01/16 05:49:46;;;;;;;6.80;3.97;;;;;;;6.24;100.00;96908.44;5013789;28;20406;-77
2023/01/16 05:52:12;;;;;;;10.52;5.30;;;;;;;6.22;100.00;96903.22;5014068;28;20039;-77
2023/01/16 05:54:38;;;;;;;3.78;2.45;;;;;;;6.15;100.00;96890.38;4997598;28;20075;-78
2023/01/16 05:57:03;;;;;;;11.18;5.68;;;;;;;6.11;100.00;96880.84;5014181;28;20033;-77
2023/01/16 05:59:29;;;;;;;9.27;5.20;;;;;;;6.08;100.00;96896.94;5014036;28;20481;-79
2023/01/16 06:01:56;;;;;;;9.15;4.40;;;;;;;6.17;100.00;96888.47;4981252;28;20037;-78
2023/01/16 06:04:22;;;;;;;8.55;4.05;;;;;;;6.21;100.00;96887.38;4997718;28;20120;-77
2023/01/16 06:06:48;;;;;;;4.03;2.65;;;;;;;6.33;97.90;96884.03;4997213;28;20401;-75
2023/01/16 06:09:14;;;;;;;10.30;5.28;;;;;;;6.37;98.28;96886.44;4997520;28;20035;-76
2023/01/16 06:11:39;;;;;;;7.25;3.90;;;;;;;6.39;97.44;96878.38;5013694;28;20037;-77
2023/01/16 06:14:05;;;;;;;5.40;2.72;;;;;;;6.40;97.17;96853.53;4997644;28;20017;-77
2023/01/16 06:16:31;;;;;;;7.82;2.95;;;;;;;6.50;97.07;96875.97;5013550;28;20028;-78
2023/01/16 06:18:57;;;;;;;8.10;4.03;;;;;;;6.51;96.83;96875.91;4997213;28;20091;-78
2023/01/16 06:21:23;;;;;;;10.63;3.92;;;;;;;6.45;96.58;96856.78;5013667;28;20031;-79
2023/01/16 06:23:51;;;;;;;4.35;2.63;;;;;;;6.56;95.68;96878.28;5013803;28;20095;-77
2023/01/16 06:26:16;;;;;;;6.35;3.35;;;;;;;6.58;95.32;96879.06;4996964;28;20071;-77
2023/01/16 06:28:46;;;;;;;4.85;3.08;;;;;;;6.64;94.69;96891.16;4996779;28;20028;-78
2023/01/16 06:31:11;;;;;;;8.45;4.43;;;;;;;6.62;94.48;96864.66;5013968;28;20463;-78
2023/01/16 06:33:55;;;;;;;10.10;5.20;;;;;;;6.66;94.78;96868.84;4997258;28;20038;-79
2023/01/16 06:36:20;;;;;;;6.00;3.58;;;;;;;6.78;93.54;96861.97;4998435;28;20029;-79
2023/01/16 06:38:46;;;;;;;7.95;4.32;;;;;;;6.87;93.74;96872.91;5013947;28;20029;-79
2023/01/16 06:41:11;;;;;;;9.88;4.53;;;;;;;6.85;94.02;96866.84;4997267;28;20112;-79
2023/01/16 06:43:37;;;;;;;10.77;5.80;;;;;;;6.93;92.87;96883.19;4999744;28;20033;-77
2023/01/16 06:46:03;;;;;;;6.40;3.90;;;;;;;7.09;91.45;96893.78;5000668;28;20029;-78
2023/01/16 06:48:29;;;;;;;6.43;3.65;;;;;;;7.24;91.36;96886.72;5017387;28;20142;-78
2023/01/16 06:50:54;;;;;;;10.32;5.25;;;;;;;7.49;89.58;96897.59;5017197;28;20088;-78
2023/01/16 06:53:20;;;;;;;5.30;3.60;;;;;;;7.53;88.27;96883.16;5000870;28;20037;-80
2023/01/16 06:55:46;;;;;;;9.43;4.32;;;;;;;7.84;86.98;96891.00;5000916;28;20397;-78
2023/01/16 06:58:11;;;;;;;6.63;3.33;;;;;;;8.07;84.83;96897.53;5001139;28;20028;-78
2023/01/16 07:00:37;;;;;;;6.07;3.22;;;;;;;8.22;83.92;96879.75;5000857;28;20497;-78
2023/01/16 07:03:03;;;;;;;4.90;2.67;;;;;;;8.18;83.03;96855.13;5000767;28;20069;-78
2023/01/16 07:05:30;;;;;;;9.27;4.55;;;;;;;8.25;83.34;96882.19;5001072;28;20454;-77
2023/01/16 07:07:56;;;;;;;5.70;3.13;;;;;;;8.15;82.26;96893.44;5000599;28;20489;-78
2023/01/16 07:10:22;;;;;;;8.82;5.07;;;;;;;7.98;83.97;96877.69;5016772;28;20030;-78
2023/01/16 07:12:49;;;;;;;11.27;5.30;;;;;;;7.90;84.59;96876.44;5000313;28;20501;-78
2023/01/16 07:23:33;;;;;;;7.50;4.47;;;;;;;8.78;80.29;96890.31;5019846;28;20052;-77
2023/01/16 07:26:02;;;;;;;11.07;4.28;;;;;;;9.06;77.96;96890.22;5016736;28;20025;-76
2023/01/16 07:28:28;;;;;;;7.15;3.75;;;;;;;8.88;77.71;96864.75;5000685;28;20034;-77
2023/01/16 07:30:54;;;;;;;9.07;5.05;;;;;;;8.62;80.27;96871.78;5000192;28;20480;-77
2023/01/16 07:33:20;;;;;;;7.00;3.25;;;;;;;8.58;80.85;96864.13;5016137;28;20040;-78
2023/01/16 07:35:46;;;;;;;5.93;3.25;;;;;;;8.38;82.23;96862.72;5000280;28;20511;-77
2023/01/16 07:38:11;;;;;;;10.77;4.72;;;;;;;8.42;81.76;96848.25;5016830;28;20037;-77
2023/01/16 07:40:37;;;;;;;8.25;4.43;;;;;;;8.44;82.25;96859.66;5016692;28;20473;-77
2023/01/16 07:43:04;;;;;;;8.30;4.15;;;;;;;8.45;82.54;96868.53;5016200;28;20033;-77
2023/01/16 07:45:30;;;;;;;14.43;6.40;;;;;;;8.63;82.77;96888.66;5016574;28;20437;-78
2023/01/16 07:47:55;;;;;;;7.82;3.95;;;;;;;8.59;81.05;96865.81;5015932;28;20037;-78
2023/01/16 07:50:21;;;;;;;6.05;3.42;;;;;;;8.73;80.04;96851.59;4999807;28;20140;-78
2023/01/16 07:52:47;;;;;;;7.47;3.40;;;;;;;8.93;79.02;96862.63;4991803;28;20033;-77
2023/01/16 07:55:14;;;;;;;10.13;5.57;;;;;;;8.93;80.92;96854.63;4988378;28;20489;-79
2023/01/16 07:57:39;;;;;;;6.65;3.65;;;;;;;8.45;81.05;96836.53;5026921;28;20025;-78
2023/01/16 08:00:08;;;;;;;6.25;3.17;;;;;;;8.05;84.70;96865.69;5006716;28;20056;-79
2023/01/16 08:02:33;;;;;;;9.70;4.60;;;;;;;8.00;86.91;96857.13;4985146;28;20052;-79
2023/01/16 08:04:59;;;;;;;7.18;4.35;;;;;;;7.88;89.08;96881.84;5004367;28;20029;-79
2023/01/16 08:07:24;;;;;;;5.50;3.13;;;;;;;7.88;88.53;96873.88;4998112;28;20066;-78
2023/01/16 08:09:50;;;;;;;10.50;5.28;;;;;;;7.75;90.00;96878.25;4999551;28;20155;-78
2023/01/16 08:12:15;;;;;;;9.27;5.55;;;;;;;7.80;90.12;96870.84;4990779;28;20041;-78
2023/01/16 08:14:41;;;;;;;12.02;5.55;;;;;;;7.75;90.11;96880.06;4998888;28;20045;-79
2023/01/16 08:17:07;;;;;;;10.52;5.55;;;;;;;7.82;92.54;96892.88;4987716;28;20030;-78
2023/01/16 08:19:33;;;;;;;9.88;5.28;;;;;;;7.90;90.70;96877.31;4990596;28;20160;-78
2023/01/16 08:21:58;;;;;;;9.90;4.82;;;;;;;7.81;90.36;96867.22;5001462;28;20030;-78
2023/01/16 08:24:25;;;;;;;8.55;4.55;;;;;;;8.17;90.22;96899.56;4990718;28;20052;-77
2023/01/16 08:26:51;;;;;;;12.43;6.07;;;;;;;8.21;88.25;96886.03;4992466;28;20057;-78
2023/01/16 08:29:17;;;;;;;9.52;4.95;;;;;;;8.17;87.52;96875.56;5007233;28;20065;-79
2023/01/16 08:31:43;;;;;;;7.65;4.75;;;;;;;8.09;88.30;96877.03;5012916;28;20060;-78
2023/01/16 08:34:08;;;;;;;5.63;3.20;;;;;;;8.02;87.58;96876.53;5008481;28;20021;-79
2023/01/16 08:36:34;;;;;;;10.65;5.38;;;;;;;8.02;88.51;96879.22;5005983;28;20036;-79
2023/01/16 08:38:59;;;;;;;10.43;6.03;;;;;;;7.96;88.98;96860.09;5014243;28;20413;-79
2023/01/16 08:52:58;;;;;;;7.47;4.25;;;;;;;8.17;84.52;96864.94;5020023;28;20041;-78
2023/01/16 08:55:24;;;;;;;8.05;4.18;;;;;;;8.45;82.16;96868.53;4998446;28;20030;-79
2023/01/16 08:57:49;;;;;;;6.72;3.67;;;;;;;9.05;80.11;96877.81;5011693;28;20060;-78
2023/01/16 09:00:15;;;;;;;7.82;3.60;;;;;;;9.54;75.15;96867.34;5012100;28;20540;-78
2023/01/16 09:02:41;;;;;;;9.80;4.63;;;;;;;9.33;76.33;96846.59;4998894;28;20036;-79
2023/01/16 09:05:07;;;;;;;9.48;4.95;;;;;;;9.19;76.16;96831.56;4998301;28;20024;-78
2023/01/16 09:07:33;;;;;;;8.15;4.80;;;;;;;9.46;74.81;96823.47;5014918;28;20037;-77
2023/01/16 09:09:58;;;;;;;6.13;2.97;;;;;;;9.35;73.55;96818.03;5015168;28;20052;-78
2023/01/16 09:15:08;;;;;;;10.10;5.45;;;;;;;9.92;71.68;96823.75;5017878;28;20068;-78
2023/01/16 09:17:34;;;;;;;7.07;4.10;;;;;;;9.67;72.92;96803.28;4998310;28;20029;-79
2023/01/16 09:19:59;;;;;;;6.95;3.88;;;;;;;9.72;72.13;96807.31;5014866;28;20029;-78
2023/01/16 09:22:28;;;;;;;13.93;6.68;;;;;;;10.57;70.12;96811.03;5013916;28;20037;-79
2023/01/16 09:24:54;;;;;;;9.73;5.38;;;;;;;11.10;65.55;96788.28;5011935;28;20042;-79
2023/01/16 09:27:19;;;;;;;11.27;5.90;;;;;;;11.60;62.95;96789.72;5013349;28;20057;-78
2023/01/16 09:29:45;;;;;;;7.10;4.60;;;;;;;11.48;61.42;96774.59;5032390;28;20064;-76
2023/01/16 09:32:11;;;;;;;11.27;5.20;;;;;;;11.23;62.48;96757.75;4982173;28;20057;-78
2023/01/16 09:34:38;;;;;;;9.45;6.10;;;;;;;11.38;62.06;96747.72;4998187;28;20467;-77
2023/01/16 09:37:07;;;;;;;12.15;5.70;;;;;;;11.17;63.13;96752.88;4998363;28;20053;-77
2023/01/16 09:39:33;;;;;;;4.80;3.20;;;;;;;10.96;63.34;96759.88;5014455;28;20029;-78
2023/01/16 09:44:54;;;;;;;8.85;3.90;;;;;;;9.62;70.42;96758.22;4971917;28;20117;-78
2023/01/16 09:47:22;;;;;;;11.85;5.43;;;;;;;9.60;71.77;96760.13;4994575;28;20044;-79
2023/01/16 09:49:52;;;;;;;18.40;8.48;;;;;;;9.71;71.00;96740.69;4997662;28;20505;-79
2023/01/16 10:00:46;;;;;;;11.25;5.70;;;;;;;9.69;70.03;96721.28;5017412;28;20040;-78
2023/01/16 10:03:12;;;;;;;13.32;7.22;;;;;;;9.85;70.62;96711.16;4997589;28;20421;-78
2023/01/16 10:06:00;;;;;;;9.55;5.13;;;;;;;10.31;67.26;96696.16;4997969;28;20428;-79
2023/01/16 10:08:46;;;;;;;9.98;5.50;;;;;;;11.17;64.14;96715.41;5017634;28;20052;-79
2023/01/16 10:11:51;;;;;;;16.17;6.95;;;;;;;11.79;60.55;96709.63;4997187;28;20507;-78
2023/01/16 10:14:35;;;;;;;10.85;6.25;;;;;;;11.08;62.12;96672.44;4975377;28;20524;-79
2023/01/16 10:17:18;;;;;;;8.32;4.60;;;;;;;10.43;64.53;96656.16;5013518;28;20474;-79
2023/01/16 10:19:46;;;;;;;;;;;;;;;10.31;66.12;96657.91;5014348;28;20560;-78
2023/01/16 10:22:38;;;;;;;14.48;3.95;;;;;;;10.12;66.22;96642.34;5014319;28;19909;-78
2023/01/16 10:25:24;;;;;;;10.88;5.55;;;;;;;10.11;67.97;96647.81;5014519;28;20033;-78
2023/01/16 10:28:15;;;;;;;12.73;6.20;;;;;;;9.87;69.20;96639.81;4997547;28;20025;-78
2023/01/16 10:30:47;;;;;;;14.07;7.20;;;;;;;9.83;69.99;96659.69;5013896;28;20409;-79
2023/01/16 10:33:19;;;;;;;9.57;5.43;;;;;;;9.79;69.95;96661.72;5014083;28;20473;-78
2023/01/16 10:35:46;;;;;;;;;;;;;;;9.64;70.38;96648.63;4998046;28;20493;-79
2023/01/16 10:38:56;;;;;;;12.15;5.82;;;;;;;9.44;71.60;96630.56;5014154;28;20352;-79
2023/01/16 10:50:06;;;;;;;12.00;5.88;;;;;;;9.55;69.28;96617.28;5007207;28;20460;-79
2023/01/16 10:52:32;;;;;;;7.28;4.30;;;;;;;9.33;68.26;96601.97;4997916;28;20037;-78
2023/01/16 10:54:59;;;;;;;9.20;4.13;;;;;;;9.15;69.99;96604.16;4997346;28;20132;-78
2023/01/16 10:57:26;;;;;;;15.23;7.80;;;;;;;9.15;70.16;96613.97;4997667;28;20095;-78
2023/01/16 10:59:56;;;;;;;7.80;4.20;;;;;;;9.02;70.24;96587.31;4996964;28;20045;-77
2023/01/16 11:02:32;;;;;;;32.53;12.88;;;;;;;9.02;71.13;96610.44;4989153;28;20026;-78
2023/01/16 11:04:59;;;;;;;53.33;20.38;;;;;;;8.96;70.34;96600.22;5010513;28;20072;-78
2023/01/16 11:08:11;;;;;;;11.13;5.68;;;;;;;8.99;71.89;96590.19;5008321;28;20094;-81
2023/01/16 11:10:39;;;;;;;14.97;6.93;;;;;;;9.03;72.27;96586.34;5011365;28;20367;-78
2023/01/16 11:19:22;;;;;;;14.60;7.63;;;;;;;8.99;71.67;96582.19;5015921;28;20060;-78
2023/01/16 11:21:58;;;;;;;10.15;4.70;;;;;;;8.98;71.72;96577.81;5013292;28;20109;-78
2023/01/16 11:24:32;;;;;;;8.15;4.93;;;;;;;9.00;72.05;96581.22;4997233;28;20037;-79
2023/01/16 11:26:59;;;;;;;14.65;6.35;;;;;;;9.01;71.41;96566.91;4996807;28;20064;-79
2023/01/16 11:29:30;;;;;;;10.65;4.78;;;;;;;8.99;70.27;96565.31;4999163;28;20057;-78
2023/01/16 11:32:01;;;;;;;13.32;5.88;;;;;;;8.99;71.86;96550.19;5000840;28;20386;-79
2023/01/16 11:34:28;;;;;;;20.58;10.23;;;;;;;9.04;72.13;96553.41;5001112;28;20497;-79
2023/01/16 11:37:00;;;;;;;11.65;5.25;;;;;;;9.13;71.37;96555.41;5017037;28;20037;-77
2023/01/16 11:39:28;;;;;;;24.50;10.93;;;;;;;9.02;71.21;96546.44;5000746;28;20029;-77
2023/01/16 11:41:56;;;;;;;12.25;6.50;;;;;;;9.00;71.46;96541.22;5016471;28;20029;-78
2023/01/16 11:47:16;;;;;;;10.40;5.60;;;;;;;9.35;70.18;96541.31;5020114;28;20036;-78
2023/01/16 11:49:48;;;;;;;19.05;8.63;;;;;;;9.24;70.39;96520.78;4996988;28;20030;-77
2023/01/16 11:52:28;;;;;;;15.90;7.90;;;;;;;9.26;70.87;96524.16;4997063;28;20034;-79
2023/01/16 11:54:59;;;;;;;16.88;7.65;;;;;;;9.39;70.28;96508.13;5015311;28;20485;-79
2023/01/16 11:57:42;;;;;;;17.90;7.47;;;;;;;9.55;67.70;96522.03;5016869;28;20381;-79
2023/01/16 12:00:14;;;;;;;9.45;4.78;;;;;;;9.63;66.39;96508.97;5000366;28;20037;-79
2023/01/16 12:03:01;;;;;;;10.98;6.07;;;;;;;9.87;65.14;96503.59;5034313;28;20033;-76
2023/01/16 12:05:54;;;;;;;13.50;7.20;;;;;;;10.05;63.32;96502.19;5013346;28;20517;-77
2023/01/16 12:08:32;;;;;;;;;;;;;;;9.98;63.17;96492.94;4997322;28;20091;-79
2023/01/16 12:11:04;;;;;;;13.13;6.45;;;;;;;9.94;63.02;96487.94;5014984;28;20363;-79
2023/01/16 12:14:24;;;;;;;;;;;;;;;9.95;63.59;96490.50;4999679;28;20044;-79
2023/01/16 12:17:03;;;;;;;17.00;9.75;;;;;;;10.03;63.12;96487.28;5026749;28;19920;-79
2023/01/16 12:19:50;;;;;;;14.45;7.30;;;;;;;10.05;63.77;96494.19;5016322;28;20029;-79
2023/01/16 12:22:48;;;;;;;25.73;8.38;;;;;;;10.23;63.31;96486.59;5034079;28;20075;-79
2023/01/16 12:25:32;;;;;;;13.70;7.35;;;;;;;10.34;62.55;96489.28;4999835;28;20128;-78
2023/01/16 12:28:27;;;;;;;9.32;4.35;;;;;;;10.12;62.92;96468.69;5034134;28;20033;-78
2023/01/16 12:31:34;;;;;;;12.38;6.90;;;;;;;10.11;64.26;96464.31;4993704;28;20391;-79
2023/01/16 12:34:14;;;;;;;7.45;4.45;;;;;;;10.16;63.37;96458.66;5031982;28;20175;-79
2023/01/16 12:37:01;;;;;;;11.30;6.90;;;;;;;9.96;64.32;96461.97;4996116;28;20167;-78
2023/01/16 12:39:53;;;;;;;22.05;10.80;;;;;;;10.00;65.37;96482.13;4984082;28;20416;-78
2023/01/16 12:43:18;;;;;;;16.70;8.83;;;;;;;9.99;64.65;96469.75;4999444;28;20095;-78
2023/01/16 12:46:00;;;;;;;25.63;7.90;;;;;;;9.99;64.74;96467.09;5012381;28;20041;-78
2023/01/16 12:48:48;;;;;;;13.75;7.18;;;;;;;9.97;65.84;96467.19;5012316;28;20060;-79
2023/01/16 12:51:38;;;;;;;15.73;7.18;;;;;;;9.95;65.02;96455.78;4997938;28;20513;-78
2023/01/16 12:54:22;;;;;;;10.85;6.03;;;;;;;10.00;64.87;96450.06;5015494;28;20103;-78
2023/01/16 12:57:12;;;;;;;8.40;5.13;;;;;;;10.03;63.70;96431.16;5015656;28;20444;-78
2023/01/16 12:59:47;;;;;;;11.23;6.10;;;;;;;10.01;64.16;96414.38;5005801;28;20030;-80
2023/01/16 13:02:12;;;;;;;12.23;6.50;;;;;;;10.15;63.71;96408.88;5012206;28;20466;-81
2023/01/16 13:04:43;;;;;;;10.55;5.50;;;;;;;10.08;63.59;96408.47;5012050;28;20076;-78
2023/01/16 13:07:15;;;;;;;11.75;5.53;;;;;;;9.97;63.81;96394.22;4999350;28;20061;-79
2023/01/16 13:15:37;;;;;;;12.45;6.20;;;;;;;9.53;67.04;96389.66;5017406;28;20032;-78